createdAt,value
2022-10-12T00:02:05.962Z,10.10
2022-10-12T00:04:32.952Z,10.10
2022-10-12T00:06:59.638Z,10.10
2022-10-12T00:09:26.391Z,10.00
2022-10-12T00:11:53.112Z,10.00
2022-10-12T00:14:19.790Z,10.00
2022-10-12T00:16:46.490Z,9.90
2022-10-12T00:19:14.153Z,9.90
2022-10-12T00:21:40.978Z,9.90
2022-10-12T00:24:09.222Z,9.90
2022-10-12T00:26:36.297Z,9.90
2022-10-12T00:29:03.697Z,9.90
2022-10-12T00:31:31.911Z,9.90
2022-10-12T00:34:02.746Z,9.90
2022-10-12T00:36:35.744Z,9.90
2022-10-12T00:39:06.310Z,9.90
2022-10-12T00:41:39.393Z,9.80
2022-10-12T00:44:40.470Z,9.80
2022-10-12T00:47:24.241Z,9.80
2022-10-12T00:50:25.338Z,9.80
2022-10-12T00:53:13.123Z,9.80
2022-10-12T00:55:48.745Z,9.80
2022-10-12T00:58:16.218Z,9.80
2022-10-12T01:00:43.664Z,9.80
2022-10-12T01:03:17.405Z,9.80
2022-10-12T01:05:44.170Z,9.80
2022-10-12T01:08:10.972Z,9.80
2022-10-12T01:10:37.688Z,9.80
2022-10-12T01:13:04.975Z,9.70
2022-10-12T01:15:39.293Z,9.70
2022-10-12T01:18:31.706Z,9.70
2022-10-12T01:21:23.545Z,9.80
2022-10-12T01:24:15.582Z,9.70
2022-10-12T01:27:05.601Z,9.70
2022-10-12T01:30:22.442Z,9.60
2022-10-12T01:33:25.065Z,9.60
2022-10-12T01:36:00.250Z,9.70
2022-10-12T01:39:21.043Z,9.70
2022-10-12T01:41:58.321Z,9.70
2022-10-12T01:44:26.957Z,9.70
2022-10-12T01:46:56.378Z,9.60
2022-10-12T01:49:30.151Z,9.60
2022-10-12T01:52:10.696Z,9.60
2022-10-12T01:55:21.052Z,9.60
2022-10-12T01:58:17.829Z,9.60
2022-10-12T02:01:07.839Z,9.60
2022-10-12T02:03:55.968Z,9.60
2022-10-12T02:06:32.414Z,9.60
2022-10-12T02:09:11.794Z,9.50
2022-10-12T02:11:50.167Z,9.50
2022-10-12T02:14:22.274Z,9.50
2022-10-12T02:16:58.868Z,9.40
2022-10-12T02:19:29.760Z,9.40
2022-10-12T02:22:01.883Z,9.40
2022-10-12T02:24:31.589Z,9.40
2022-10-12T02:27:01.166Z,9.40
2022-10-12T02:29:35.966Z,9.30
2022-10-12T02:32:23.247Z,9.30
2022-10-12T02:35:19.323Z,9.30
2022-10-12T02:37:51.866Z,9.20
2022-10-12T02:40:42.961Z,9.10
2022-10-12T02:43:21.243Z,9.10
2022-10-12T02:45:49.950Z,9.00
2022-10-12T02:48:23.910Z,9.00
2022-10-12T02:50:56.730Z,9.00
2022-10-12T02:53:26.790Z,8.90
2022-10-12T02:56:00.857Z,8.80
2022-10-12T02:58:27.635Z,8.80
2022-10-12T03:00:54.428Z,8.80
2022-10-12T03:03:21.279Z,8.70
2022-10-12T03:05:48.022Z,8.70
2022-10-12T03:08:14.724Z,8.70
2022-10-12T03:10:41.442Z,8.70
2022-10-12T03:13:08.225Z,8.70
2022-10-12T03:15:34.916Z,8.60
2022-10-12T03:18:01.634Z,8.60
2022-10-12T03:20:28.361Z,8.60
2022-10-12T03:22:55.162Z,8.50
2022-10-12T03:25:22.266Z,8.50
2022-10-12T03:27:48.952Z,8.50
2022-10-12T03:30:16.234Z,8.50
2022-10-12T03:32:42.973Z,8.40
2022-10-12T03:35:10.051Z,8.30
2022-10-12T03:37:37.063Z,8.30
2022-10-12T03:40:04.453Z,8.20
2022-10-12T03:42:31.142Z,8.20
2022-10-12T03:44:57.842Z,8.10
2022-10-12T03:47:24.543Z,8.10
2022-10-12T03:49:51.230Z,8.00
2022-10-12T03:52:17.916Z,8.00
2022-10-12T03:54:44.635Z,8.00
2022-10-12T03:57:11.490Z,7.90
2022-10-12T03:59:38.191Z,7.90
2022-10-12T04:02:04.903Z,7.90
2022-10-12T04:04:31.602Z,7.80
2022-10-12T04:06:58.294Z,7.80
2022-10-12T04:09:25.111Z,7.80
2022-10-12T04:11:51.828Z,7.70
2022-10-12T04:14:18.514Z,7.70
2022-10-12T04:16:45.210Z,7.60
2022-10-12T04:19:15.368Z,7.60
2022-10-12T04:21:42.170Z,7.60
2022-10-12T04:24:08.908Z,7.50
2022-10-12T04:26:35.747Z,7.50
2022-10-12T04:29:02.573Z,7.50
2022-10-12T04:31:29.780Z,7.40
2022-10-12T04:33:57.489Z,7.40
2022-10-12T04:38:57.019Z,7.40
2022-10-12T04:41:32.933Z,7.40
2022-10-12T04:43:59.640Z,7.40
2022-10-12T04:46:26.486Z,7.30
2022-10-12T04:48:53.360Z,7.30
2022-10-12T04:51:20.147Z,7.20
2022-10-12T04:53:46.842Z,7.20
2022-10-12T04:56:13.575Z,7.20
2022-10-12T04:58:40.316Z,7.20
2022-10-12T05:01:07.044Z,7.10
2022-10-12T05:03:36.081Z,7.10
2022-10-12T05:06:06.643Z,7.10
2022-10-12T05:08:33.417Z,7.10
2022-10-12T05:11:00.250Z,7.10
2022-10-12T05:13:27.145Z,7.20
2022-10-12T05:15:53.954Z,7.20
2022-10-12T05:18:20.644Z,7.20
2022-10-12T05:20:47.407Z,7.30
2022-10-12T05:23:14.543Z,7.30
2022-10-12T05:25:41.311Z,7.40
2022-10-12T05:28:08.053Z,7.40
2022-10-12T05:30:34.871Z,7.40
2022-10-12T05:33:01.583Z,7.50
2022-10-12T05:35:28.322Z,7.50
2022-10-12T05:37:55.093Z,7.60
2022-10-12T05:40:21.851Z,7.60
2022-10-12T05:42:48.537Z,7.60
2022-10-12T05:45:15.374Z,7.70
2022-10-12T05:47:42.197Z,7.70
2022-10-12T05:50:09.368Z,7.70
2022-10-12T05:52:36.409Z,7.70
2022-10-12T05:55:03.723Z,7.80
2022-10-12T05:57:30.466Z,7.80
2022-10-12T05:59:57.230Z,7.90
2022-10-12T06:02:23.967Z,7.90
2022-10-12T06:04:50.695Z,7.90
2022-10-12T06:07:17.424Z,8.00
2022-10-12T06:09:44.722Z,8.00
2022-10-12T06:12:11.507Z,8.00
2022-10-12T06:14:38.205Z,8.10
2022-10-12T06:17:04.974Z,8.10
2022-10-12T06:19:31.655Z,8.20
2022-10-12T06:21:58.502Z,8.20
2022-10-12T06:24:25.249Z,8.20
2022-10-12T06:26:51.938Z,8.30
2022-10-12T06:29:18.855Z,8.30
2022-10-12T06:31:51.219Z,8.40
2022-10-12T06:34:18.694Z,8.40
2022-10-12T06:36:45.407Z,8.50
2022-10-12T06:39:12.689Z,8.50
2022-10-12T06:41:39.446Z,8.60
2022-10-12T06:44:06.602Z,8.60
2022-10-12T06:46:33.439Z,8.70
2022-10-12T06:49:00.134Z,8.70
2022-10-12T06:51:26.834Z,8.80
2022-10-12T06:53:56.965Z,8.80
2022-10-12T06:56:23.919Z,8.90
2022-10-12T06:58:57.618Z,9.00
2022-10-12T07:01:24.627Z,9.00
2022-10-12T07:03:51.359Z,9.10
2022-10-12T07:06:18.176Z,9.10
2022-10-12T07:08:44.967Z,9.30
2022-10-12T07:11:13.164Z,9.40
2022-10-12T07:13:40.109Z,9.50
2022-10-12T07:16:07.596Z,9.60
2022-10-12T07:18:34.510Z,9.70
2022-10-12T07:21:02.681Z,9.90
2022-10-12T07:23:34.702Z,10.00
2022-10-12T07:26:01.634Z,10.10
2022-10-12T07:28:28.862Z,10.20
2022-10-12T07:31:02.318Z,10.30
2022-10-12T07:33:33.931Z,10.50
2022-10-12T07:36:13.906Z,10.60
2022-10-12T07:38:44.950Z,11.00
2022-10-12T07:41:13.022Z,11.50
2022-10-12T07:43:39.826Z,11.60
2022-10-12T07:46:07.381Z,11.60
2022-10-12T07:48:34.762Z,11.60
2022-10-12T07:51:10.252Z,11.70
2022-10-12T07:53:38.950Z,11.70
2022-10-12T07:56:14.790Z,11.70
2022-10-12T07:58:50.799Z,11.80
2022-10-12T08:01:20.172Z,11.90
2022-10-12T08:03:47.768Z,12.00
2022-10-12T08:06:22.617Z,12.10
2022-10-12T08:08:50.709Z,12.10
2022-10-12T08:11:19.784Z,12.10
2022-10-12T08:13:47.330Z,12.20
2022-10-12T08:16:19.293Z,12.20
2022-10-12T08:18:46.392Z,12.30
2022-10-12T08:21:15.888Z,12.40
2022-10-12T08:23:44.938Z,12.70
2022-10-12T08:26:12.856Z,13.00
2022-10-12T08:28:40.037Z,13.40
2022-10-12T08:31:13.259Z,13.80
2022-10-12T08:33:40.574Z,14.10
2022-10-12T08:36:08.835Z,14.30
2022-10-12T08:38:40.224Z,14.50
2022-10-12T08:41:46.882Z,14.60
2022-10-12T08:44:34.596Z,14.80
2022-10-12T08:47:17.860Z,15.00
2022-10-12T08:49:50.070Z,15.10
2022-10-12T08:52:34.920Z,15.20
2022-10-12T08:55:20.516Z,15.40
2022-10-12T08:57:49.890Z,15.60
2022-10-12T09:00:18.138Z,15.70
2022-10-12T09:03:08.905Z,16.00
2022-10-12T09:06:02.373Z,16.20
2022-10-12T09:09:00.367Z,16.30
2022-10-12T09:11:57.716Z,16.30
2022-10-12T09:14:37.775Z,16.40
2022-10-12T09:17:26.996Z,16.50
2022-10-12T09:20:05.920Z,16.50
2022-10-12T09:22:34.448Z,16.40
2022-10-12T09:25:02.787Z,16.50
2022-10-12T09:27:31.716Z,16.40
2022-10-12T09:30:05.342Z,16.60
2022-10-12T09:32:48.298Z,16.80
2022-10-12T09:35:15.492Z,17.10
2022-10-12T09:37:46.522Z,17.10
2022-10-12T09:40:32.635Z,17.10
2022-10-12T09:43:03.794Z,17.00
2022-10-12T09:45:34.498Z,16.80
2022-10-12T09:48:21.775Z,16.70
2022-10-12T09:51:03.150Z,16.80
2022-10-12T09:53:46.265Z,16.70
2022-10-12T09:56:26.868Z,16.60
2022-10-12T09:59:00.975Z,16.70
2022-10-12T10:01:34.521Z,16.70
2022-10-12T10:04:17.535Z,16.70
2022-10-12T10:06:46.620Z,16.90
2022-10-12T10:09:35.381Z,17.10
2022-10-12T10:12:31.660Z,17.20
2022-10-12T10:14:59.675Z,17.30
2022-10-12T10:17:33.890Z,17.20
2022-10-12T10:20:05.508Z,17.00
2022-10-12T10:22:32.883Z,17.20
2022-10-12T10:25:01.268Z,17.60
2022-10-12T10:27:37.696Z,17.70
2022-10-12T10:30:29.818Z,17.70
2022-10-12T10:33:32.480Z,18.10
2022-10-12T10:36:23.096Z,18.60
2022-10-12T10:39:02.756Z,19.00
2022-10-12T10:41:38.486Z,19.30
2022-10-12T10:44:21.724Z,18.90
2022-10-12T10:46:49.164Z,18.50
2022-10-12T10:49:34.359Z,18.20
2022-10-12T10:52:03.927Z,18.30
2022-10-12T10:54:37.938Z,18.70
2022-10-12T10:57:21.626Z,18.80
2022-10-12T10:59:53.422Z,18.50
2022-10-12T11:02:48.949Z,18.20
2022-10-12T11:05:26.714Z,17.90
2022-10-12T11:08:01.404Z,17.60
2022-10-12T11:10:50.132Z,17.50
2022-10-12T11:13:36.161Z,17.70
2022-10-12T11:16:37.815Z,17.70
2022-10-12T11:19:36.910Z,17.70
2022-10-12T11:22:25.691Z,17.70
2022-10-12T11:24:56.300Z,17.70
2022-10-12T11:27:37.062Z,17.80
2022-10-12T11:30:14.705Z,17.80
2022-10-12T11:32:51.467Z,17.70
2022-10-12T11:35:34.103Z,17.70
2022-10-12T11:38:11.602Z,17.70
2022-10-12T11:41:31.181Z,17.70
2022-10-12T11:43:49.755Z,17.90
2022-10-12T11:46:26.078Z,18.30
2022-10-12T11:49:01.581Z,18.80
2022-10-12T11:51:28.289Z,18.90
2022-10-12T11:54:07.358Z,19.20
2022-10-12T11:56:50.820Z,19.70
2022-10-12T11:59:26.209Z,20.40
2022-10-12T12:02:45.071Z,20.90
2022-10-12T12:05:17.319Z,21.20
2022-10-12T12:07:53.863Z,21.50
2022-10-12T12:10:27.509Z,21.70
2022-10-12T12:13:15.346Z,21.90
2022-10-12T12:15:52.339Z,21.90
2022-10-12T12:18:29.293Z,22.00
2022-10-12T12:21:10.069Z,21.90
2022-10-12T12:23:52.617Z,22.00
2022-10-12T12:26:30.704Z,22.10
2022-10-12T12:29:27.326Z,22.20
2022-10-12T12:31:59.021Z,22.30
2022-10-12T12:34:27.883Z,22.20
2022-10-12T12:36:55.203Z,22.20
2022-10-12T12:39:33.698Z,22.30
2022-10-12T12:42:10.459Z,22.20
2022-10-12T12:44:44.791Z,22.20
2022-10-12T12:47:40.283Z,22.20
2022-10-12T12:50:09.175Z,22.20
2022-10-12T12:52:40.665Z,22.30
2022-10-12T12:55:16.213Z,22.40
2022-10-12T12:58:20.219Z,22.50
2022-10-12T13:01:21.395Z,22.70
2022-10-12T13:04:38.644Z,22.80
2022-10-12T13:08:04.960Z,22.70
2022-10-12T13:11:03.488Z,22.50
2022-10-12T13:13:48.655Z,22.20
2022-10-12T13:19:37.778Z,21.90
2022-10-12T13:22:13.986Z,21.20
2022-10-12T13:24:50.251Z,20.60
2022-10-12T13:27:48.106Z,19.90
2022-10-12T13:30:47.849Z,19.70
2022-10-12T13:33:32.726Z,20.00
2022-10-12T13:36:28.236Z,20.70
2022-10-12T13:38:57.839Z,20.90
2022-10-12T13:41:30.235Z,20.60
2022-10-12T13:44:06.386Z,20.20
2022-10-12T13:46:45.175Z,19.70
2022-10-12T13:49:19.756Z,19.40
2022-10-12T13:51:51.867Z,19.30
2022-10-12T13:54:22.563Z,19.10
2022-10-12T13:57:03.801Z,19.00
2022-10-12T13:59:37.499Z,18.90
2022-10-12T14:02:17.378Z,18.80
2022-10-12T14:04:44.598Z,19.30
2022-10-12T14:07:39.545Z,21.20
2022-10-12T14:10:18.366Z,24.40
2022-10-12T14:12:48.664Z,26.90
2022-10-12T14:15:17.649Z,28.20
2022-10-12T14:17:50.802Z,28.80
2022-10-12T14:20:39.340Z,29.60
2022-10-12T14:23:17.087Z,30.50
2022-10-12T14:25:54.176Z,31.20
2022-10-12T14:28:35.411Z,31.00
2022-10-12T14:31:02.805Z,30.20
2022-10-12T14:33:31.788Z,28.70
2022-10-12T14:36:27.110Z,27.40
2022-10-12T14:38:54.078Z,25.90
2022-10-12T14:41:40.650Z,24.50
2022-10-12T14:44:11.169Z,23.80
2022-10-12T14:46:46.871Z,23.60
2022-10-12T14:49:40.717Z,23.40
2022-10-12T14:52:24.680Z,23.60
2022-10-12T14:54:57.988Z,23.90
2022-10-12T14:57:28.159Z,23.90
2022-10-12T14:59:54.903Z,23.80
2022-10-12T15:02:31.633Z,23.20
2022-10-12T15:04:59.522Z,22.40
2022-10-12T15:07:33.863Z,21.70
2022-10-12T15:10:01.571Z,21.00
2022-10-12T15:12:30.396Z,20.50
2022-10-12T15:15:01.046Z,20.00
2022-10-12T15:17:28.338Z,19.70
2022-10-12T15:19:55.090Z,19.50
2022-10-12T15:22:25.945Z,19.20
2022-10-12T15:24:55.712Z,19.00
2022-10-12T15:27:22.632Z,18.90
2022-10-12T15:29:49.513Z,18.70
2022-10-12T15:32:18.617Z,18.60
2022-10-12T15:34:45.599Z,18.50
2022-10-12T15:37:12.366Z,18.40
2022-10-12T15:39:39.296Z,18.30
2022-10-12T15:42:06.052Z,18.10
2022-10-12T15:44:40.855Z,18.00
2022-10-12T15:47:11.000Z,17.80
2022-10-12T15:49:38.482Z,17.60
2022-10-12T15:52:10.944Z,17.50
2022-10-12T15:54:37.662Z,17.40
2022-10-12T15:57:06.872Z,17.30
2022-10-12T15:59:33.892Z,17.20
2022-10-12T16:02:00.663Z,17.00
2022-10-12T16:04:27.392Z,16.90
2022-10-12T16:06:54.121Z,16.70
2022-10-12T16:09:20.830Z,16.50
2022-10-12T16:11:47.566Z,16.40
2022-10-12T16:14:14.698Z,16.30
2022-10-12T16:16:41.448Z,16.10
2022-10-12T16:19:08.421Z,16.00
2022-10-12T16:21:35.119Z,15.80
2022-10-12T16:24:01.841Z,15.70
2022-10-12T16:26:28.553Z,15.60
2022-10-12T16:28:55.299Z,15.50
2022-10-12T16:31:22.035Z,15.40
2022-10-12T16:33:48.774Z,15.30
2022-10-12T16:36:16.707Z,15.20
2022-10-12T16:38:44.719Z,15.10
2022-10-12T16:41:17.065Z,15.00
2022-10-12T16:43:44.271Z,14.90
2022-10-12T16:46:11.057Z,14.80
2022-10-12T16:48:38.283Z,14.60
2022-10-12T16:51:10.297Z,14.60
2022-10-12T16:53:37.233Z,14.40
2022-10-12T16:56:04.965Z,14.30
2022-10-12T16:58:31.807Z,14.20
2022-10-12T17:00:58.551Z,14.10
2022-10-12T17:03:25.444Z,14.10
2022-10-12T17:06:00.145Z,14.00
2022-10-12T17:08:27.354Z,13.90
2022-10-12T17:10:55.178Z,13.80
2022-10-12T17:13:21.915Z,13.80
2022-10-12T17:15:48.619Z,13.70
2022-10-12T17:18:15.308Z,13.60
2022-10-12T17:20:42.030Z,13.60
2022-10-12T17:23:08.770Z,13.50
2022-10-12T17:25:35.858Z,13.50
2022-10-12T17:28:02.548Z,13.40
2022-10-12T17:30:29.383Z,13.40
2022-10-12T17:32:56.077Z,13.30
2022-10-12T17:35:22.781Z,13.20
2022-10-12T17:37:49.479Z,13.20
2022-10-12T17:40:16.334Z,13.10
2022-10-12T17:42:43.070Z,13.00
2022-10-12T17:47:39.064Z,12.90
2022-10-12T17:50:06.338Z,12.80
2022-10-12T17:52:39.271Z,12.70
2022-10-12T17:55:09.408Z,12.70
2022-10-12T17:57:41.913Z,12.70
2022-10-12T18:00:09.670Z,12.60
2022-10-12T18:02:36.359Z,12.60
2022-10-12T18:05:03.169Z,12.60
2022-10-12T18:07:30.295Z,12.50
2022-10-12T18:12:28.695Z,12.40
2022-10-12T18:14:55.405Z,12.30
2022-10-12T18:17:22.798Z,12.30
2022-10-12T18:19:49.781Z,12.20
2022-10-12T18:22:16.849Z,12.20
2022-10-12T18:24:43.723Z,12.20
2022-10-12T18:27:10.441Z,12.10
2022-10-12T18:29:37.169Z,12.10
2022-10-12T18:32:06.481Z,12.10
2022-10-12T18:34:36.728Z,12.10
2022-10-12T18:37:04.253Z,12.00
2022-10-12T18:39:31.352Z,11.90
2022-10-12T18:44:25.566Z,11.90
2022-10-12T18:46:52.311Z,11.90
2022-10-12T18:49:19.023Z,11.80
2022-10-12T18:51:51.159Z,11.80
2022-10-12T18:54:18.752Z,11.70
2022-10-12T18:56:45.852Z,11.70
2022-10-12T18:59:17.339Z,11.60
2022-10-12T19:01:45.355Z,11.50
2022-10-12T19:04:12.264Z,11.50
2022-10-12T19:06:42.422Z,11.50
2022-10-12T19:09:13.530Z,11.40
2022-10-12T19:11:40.406Z,11.40
2022-10-12T19:14:15.686Z,11.40
2022-10-12T19:16:43.903Z,11.30
2022-10-12T19:19:20.761Z,11.30
2022-10-12T19:21:49.614Z,11.20
2022-10-12T19:24:16.541Z,11.20
2022-10-12T19:26:44.583Z,11.10
2022-10-12T19:29:11.317Z,11.10
2022-10-12T19:31:42.296Z,11.10
2022-10-12T19:34:12.262Z,11.00
2022-10-12T19:36:40.765Z,11.00
2022-10-12T19:39:17.036Z,11.00
2022-10-12T19:41:44.280Z,11.00
2022-10-12T19:44:12.730Z,10.90
2022-10-12T19:46:42.449Z,10.90
2022-10-12T19:49:13.615Z,10.80
2022-10-12T19:51:40.636Z,10.80
2022-10-12T19:54:07.334Z,10.80
2022-10-12T19:56:34.017Z,10.70
2022-10-12T19:59:00.798Z,10.70
2022-10-12T20:01:34.882Z,10.70
2022-10-12T20:04:05.380Z,10.70
2022-10-12T20:06:32.771Z,10.70
2022-10-12T20:09:04.743Z,10.60
2022-10-12T20:11:31.470Z,10.50
2022-10-12T20:13:58.599Z,10.50
2022-10-12T20:16:27.524Z,10.50
2022-10-12T20:18:56.824Z,10.40
2022-10-12T20:21:24.202Z,10.30
2022-10-12T20:23:51.871Z,10.30
2022-10-12T20:26:26.042Z,10.40
2022-10-12T20:28:54.619Z,10.40
2022-10-12T20:31:29.277Z,10.50
2022-10-12T20:33:57.705Z,10.50
2022-10-12T20:36:30.818Z,10.60
2022-10-12T20:38:58.766Z,10.60
2022-10-12T20:41:27.489Z,10.60
2022-10-12T20:43:59.905Z,10.70
2022-10-12T20:46:28.512Z,10.70
2022-10-12T20:48:59.599Z,10.70
2022-10-12T20:51:44.740Z,10.70
2022-10-12T20:54:15.938Z,10.70
2022-10-12T20:56:43.899Z,10.70
2022-10-12T20:59:10.973Z,10.70
2022-10-12T21:01:37.910Z,10.70
2022-10-12T21:04:04.643Z,10.80
2022-10-12T21:06:31.353Z,10.80
2022-10-12T21:08:58.299Z,10.90
2022-10-12T21:11:25.846Z,10.90
2022-10-12T21:13:53.218Z,10.90
2022-10-12T21:16:20.099Z,10.90
2022-10-12T21:18:47.083Z,11.00
2022-10-12T21:21:18.847Z,11.00
2022-10-12T21:24:01.247Z,11.00
2022-10-12T21:26:31.107Z,11.00
2022-10-12T21:29:00.876Z,11.00
2022-10-12T21:31:32.224Z,11.00
2022-10-12T21:34:06.915Z,11.00
2022-10-12T21:36:36.524Z,11.00
2022-10-12T21:39:08.142Z,10.90
2022-10-12T21:41:35.047Z,11.00
2022-10-12T21:44:01.759Z,10.90
2022-10-12T21:46:32.493Z,10.80
2022-10-12T21:49:01.377Z,10.80
2022-10-12T21:51:31.439Z,10.70
2022-10-12T21:53:58.667Z,10.60
2022-10-12T21:56:32.499Z,10.50
2022-10-12T21:59:02.054Z,10.50
2022-10-12T22:01:35.247Z,10.40
2022-10-12T22:04:06.224Z,10.30
2022-10-12T22:06:34.430Z,10.20
2022-10-12T22:09:05.463Z,10.20
2022-10-12T22:11:35.440Z,10.10
2022-10-12T22:14:09.265Z,10.10
2022-10-12T22:16:36.875Z,10.00
2022-10-12T22:19:07.755Z,9.90
2022-10-12T22:21:36.373Z,9.80
2022-10-12T22:24:03.719Z,9.80
2022-10-12T22:26:30.576Z,9.70
2022-10-12T22:28:57.501Z,9.70
2022-10-12T22:31:25.085Z,9.70
2022-10-12T22:33:53.273Z,9.60
2022-10-12T22:36:20.296Z,9.60
2022-10-12T22:38:47.129Z,9.50
2022-10-12T22:41:17.836Z,9.50
2022-10-12T22:43:44.548Z,9.50
2022-10-12T22:46:12.185Z,9.40
2022-10-12T22:48:39.195Z,9.40
2022-10-12T22:51:07.498Z,9.40
2022-10-12T22:53:35.637Z,9.30
2022-10-12T22:56:06.571Z,9.30
2022-10-12T22:58:35.170Z,9.20
2022-10-12T23:01:09.854Z,9.20
2022-10-12T23:03:37.553Z,9.10
2022-10-12T23:06:05.429Z,9.10
2022-10-12T23:08:32.724Z,9.10
2022-10-12T23:11:05.436Z,9.00
2022-10-12T23:13:34.177Z,9.00
2022-10-12T23:16:17.868Z,9.00
2022-10-12T23:18:45.221Z,9.00
2022-10-12T23:21:16.382Z,9.00
2022-10-12T23:23:45.231Z,8.90
2022-10-12T23:26:16.113Z,8.90
2022-10-12T23:28:43.240Z,8.80
2022-10-12T23:31:12.219Z,8.80
2022-10-12T23:33:39.322Z,8.70
2022-10-12T23:36:10.909Z,8.70
2022-10-12T23:38:40.328Z,8.70
2022-10-12T23:41:08.215Z,8.70
2022-10-12T23:43:35.898Z,8.60
2022-10-12T23:46:05.103Z,8.60
2022-10-12T23:48:32.941Z,8.60
2022-10-12T23:51:00.121Z,8.50
2022-10-12T23:53:27.036Z,8.50
2022-10-12T23:55:54.374Z,8.50
2022-10-12T23:58:21.480Z,8.50
